Terminal Aerodrome Forecast
Issued by NWS Sterling, VA

Home | Current Version | Previous Version | Text Only | Print | Product List | Glossary On
Versions: 1 2 3 4 5 6 7 8 9 10 11 12 13 14 15 16 17 18 19
000
FTUS41 KLWX 272342
TAFCHO
TAF
KCHO 272342Z 2800/2824 01004KT P6SM BKN060
     FM280700 VRB03KT 5SM BR BKN030
     FM280900 VRB03KT 5SM BR BKN015
     FM281000 VRB03KT 2SM BR BKN008
     FM281400 VRB03KT P6SM BKN008
     FM281600 10004KT P6SM BKN035
     FM281800 14005KT P6SM -SHRA OVC045=

USA.gov is the U.S. government's official web portal to all federal, state and local government web resources and services.